sensor_id;sensor_type;location;lat;lon;timestamp;P1;durP1;ratioP1;P2;durP2;ratioP2
52674;SDS011;38569;52.722;6.440;2023-09-30T00:02:07;22.50;;;5.13;;
52674;SDS011;38569;52.722;6.440;2023-09-30T00:04:33;19.88;;;6.60;;
52674;SDS011;38569;52.722;6.440;2023-09-30T00:06:58;21.27;;;6.30;;
52674;SDS011;38569;52.722;6.440;2023-09-30T00:09:24;19.17;;;6.05;;
52674;SDS011;38569;52.722;6.440;2023-09-30T00:11:50;19.33;;;6.35;;
52674;SDS011;38569;52.722;6.440;2023-09-30T00:14:16;18.02;;;5.90;;
52674;SDS011;38569;52.722;6.440;2023-09-30T00:16:42;13.70;;;5.00;;
52674;SDS011;38569;52.722;6.440;2023-09-30T00:19:08;26.13;;;6.53;;
52674;SDS011;38569;52.722;6.440;2023-09-30T00:21:35;25.17;;;6.82;;
52674;SDS011;38569;52.722;6.440;2023-09-30T00:24:00;20.38;;;5.82;;
52674;SDS011;38569;52.722;6.440;2023-09-30T00:26:26;22.60;;;6.43;;
52674;SDS011;38569;52.722;6.440;2023-09-30T00:28:52;20.50;;;5.85;;
52674;SDS011;38569;52.722;6.440;2023-09-30T00:31:17;14.95;;;5.90;;
52674;SDS011;38569;52.722;6.440;2023-09-30T00:33:43;21.13;;;6.80;;
52674;SDS011;38569;52.722;6.440;2023-09-30T00:36:09;22.13;;;7.15;;
52674;SDS011;38569;52.722;6.440;2023-09-30T00:38:36;21.45;;;5.90;;
52674;SDS011;38569;52.722;6.440;2023-09-30T00:41:02;29.05;;;7.07;;
52674;SDS011;38569;52.722;6.440;2023-09-30T00:43:28;16.05;;;6.18;;
52674;SDS011;38569;52.722;6.440;2023-09-30T00:48:42;19.35;;;6.00;;
52674;SDS011;38569;52.722;6.440;2023-09-30T00:51:08;18.83;;;5.90;;
52674;SDS011;38569;52.722;6.440;2023-09-30T00:53:34;24.70;;;6.50;;
52674;SDS011;38569;52.722;6.440;2023-09-30T00:56:00;16.77;;;5.85;;
52674;SDS011;38569;52.722;6.440;2023-09-30T00:58:26;19.25;;;6.68;;
52674;SDS011;38569;52.722;6.440;2023-09-30T01:00:54;25.00;;;6.65;;
52674;SDS011;38569;52.722;6.440;2023-09-30T01:03:22;13.90;;;6.07;;
52674;SDS011;38569;52.722;6.440;2023-09-30T01:05:48;15.27;;;6.55;;
52674;SDS011;38569;52.722;6.440;2023-09-30T01:08:15;18.08;;;5.25;;
52674;SDS011;38569;52.722;6.440;2023-09-30T01:10:42;19.15;;;6.95;;
52674;SDS011;38569;52.722;6.440;2023-09-30T01:13:08;20.45;;;5.97;;
52674;SDS011;38569;52.722;6.440;2023-09-30T01:15:33;19.98;;;6.63;;
52674;SDS011;38569;52.722;6.440;2023-09-30T01:17:59;22.23;;;5.78;;
52674;SDS011;38569;52.722;6.440;2023-09-30T01:20:25;25.17;;;5.85;;
52674;SDS011;38569;52.722;6.440;2023-09-30T01:22:52;26.38;;;5.95;;
52674;SDS011;38569;52.722;6.440;2023-09-30T01:25:19;22.58;;;6.70;;
52674;SDS011;38569;52.722;6.440;2023-09-30T01:27:45;19.13;;;5.55;;
52674;SDS011;38569;52.722;6.440;2023-09-30T01:30:11;19.60;;;6.25;;
52674;SDS011;38569;52.722;6.440;2023-09-30T01:32:38;25.63;;;7.60;;
52674;SDS011;38569;52.722;6.440;2023-09-30T01:35:05;16.20;;;6.70;;
52674;SDS011;38569;52.722;6.440;2023-09-30T01:37:31;18.98;;;5.70;;
52674;SDS011;38569;52.722;6.440;2023-09-30T01:39:57;22.50;;;5.57;;
52674;SDS011;38569;52.722;6.440;2023-09-30T01:42:22;18.08;;;5.85;;
52674;SDS011;38569;52.722;6.440;2023-09-30T01:44:48;20.83;;;7.10;;
52674;SDS011;38569;52.722;6.440;2023-09-30T01:47:14;15.82;;;5.65;;
52674;SDS011;38569;52.722;6.440;2023-09-30T01:49:39;14.85;;;5.50;;
52674;SDS011;38569;52.722;6.440;2023-09-30T01:52:05;13.85;;;6.10;;
52674;SDS011;38569;52.722;6.440;2023-09-30T01:54:31;13.35;;;5.93;;
52674;SDS011;38569;52.722;6.440;2023-09-30T01:56:56;15.52;;;5.72;;
52674;SDS011;38569;52.722;6.440;2023-09-30T01:59:24;19.02;;;6.07;;
52674;SDS011;38569;52.722;6.440;2023-09-30T02:01:50;16.00;;;6.38;;
52674;SDS011;38569;52.722;6.440;2023-09-30T02:04:15;22.88;;;7.18;;
52674;SDS011;38569;52.722;6.440;2023-09-30T02:06:42;17.15;;;6.00;;
52674;SDS011;38569;52.722;6.440;2023-09-30T02:09:08;15.13;;;7.10;;
52674;SDS011;38569;52.722;6.440;2023-09-30T02:11:34;21.00;;;6.57;;
52674;SDS011;38569;52.722;6.440;2023-09-30T02:14:01;17.27;;;5.53;;
52674;SDS011;38569;52.722;6.440;2023-09-30T02:16:27;14.18;;;5.60;;
52674;SDS011;38569;52.722;6.440;2023-09-30T02:18:53;14.30;;;5.88;;
52674;SDS011;38569;52.722;6.440;2023-09-30T02:21:19;19.55;;;6.43;;
52674;SDS011;38569;52.722;6.440;2023-09-30T02:23:47;22.98;;;6.00;;
52674;SDS011;38569;52.722;6.440;2023-09-30T02:26:16;14.95;;;6.18;;
52674;SDS011;38569;52.722;6.440;2023-09-30T02:28:42;20.75;;;5.65;;
52674;SDS011;38569;52.722;6.440;2023-09-30T02:31:08;24.40;;;7.72;;
52674;SDS011;38569;52.722;6.440;2023-09-30T02:33:34;21.27;;;6.78;;
52674;SDS011;38569;52.722;6.440;2023-09-30T02:36:06;21.02;;;7.05;;
52674;SDS011;38569;52.722;6.440;2023-09-30T02:38:33;14.68;;;6.50;;
52674;SDS011;38569;52.722;6.440;2023-09-30T02:41:01;24.90;;;7.97;;
52674;SDS011;38569;52.722;6.440;2023-09-30T02:43:27;16.17;;;6.95;;
52674;SDS011;38569;52.722;6.440;2023-09-30T02:45:53;20.67;;;6.07;;
52674;SDS011;38569;52.722;6.440;2023-09-30T02:48:19;17.20;;;7.43;;
52674;SDS011;38569;52.722;6.440;2023-09-30T02:50:44;20.98;;;6.88;;
52674;SDS011;38569;52.722;6.440;2023-09-30T02:53:11;21.05;;;7.13;;
52674;SDS011;38569;52.722;6.440;2023-09-30T02:55:40;19.45;;;6.75;;
52674;SDS011;38569;52.722;6.440;2023-09-30T02:58:06;14.88;;;7.00;;
52674;SDS011;38569;52.722;6.440;2023-09-30T03:00:34;19.52;;;6.22;;
52674;SDS011;38569;52.722;6.440;2023-09-30T03:03:01;17.80;;;6.28;;
52674;SDS011;38569;52.722;6.440;2023-09-30T03:05:27;16.10;;;6.43;;
52674;SDS011;38569;52.722;6.440;2023-09-30T03:07:55;14.77;;;6.45;;
52674;SDS011;38569;52.722;6.440;2023-09-30T03:10:21;23.27;;;7.57;;
52674;SDS011;38569;52.722;6.440;2023-09-30T03:12:54;16.00;;;6.43;;
52674;SDS011;38569;52.722;6.440;2023-09-30T03:15:20;15.70;;;6.60;;
52674;SDS011;38569;52.722;6.440;2023-09-30T03:17:46;20.48;;;7.00;;
52674;SDS011;38569;52.722;6.440;2023-09-30T03:20:13;20.95;;;6.18;;
52674;SDS011;38569;52.722;6.440;2023-09-30T03:22:43;19.10;;;6.43;;
52674;SDS011;38569;52.722;6.440;2023-09-30T03:25:12;21.92;;;6.75;;
52674;SDS011;38569;52.722;6.440;2023-09-30T03:27:40;20.42;;;7.05;;
52674;SDS011;38569;52.722;6.440;2023-09-30T03:30:06;18.38;;;6.65;;
52674;SDS011;38569;52.722;6.440;2023-09-30T03:32:33;16.38;;;6.75;;
52674;SDS011;38569;52.722;6.440;2023-09-30T03:35:06;20.08;;;8.73;;
52674;SDS011;38569;52.722;6.440;2023-09-30T03:37:35;25.38;;;6.88;;
52674;SDS011;38569;52.722;6.440;2023-09-30T03:40:02;26.38;;;7.47;;
52674;SDS011;38569;52.722;6.440;2023-09-30T03:42:37;18.27;;;6.90;;
52674;SDS011;38569;52.722;6.440;2023-09-30T03:45:04;22.10;;;7.72;;
52674;SDS011;38569;52.722;6.440;2023-09-30T03:47:37;24.17;;;7.75;;
52674;SDS011;38569;52.722;6.440;2023-09-30T03:50:05;23.42;;;7.57;;
52674;SDS011;38569;52.722;6.440;2023-09-30T03:52:33;22.00;;;7.55;;
52674;SDS011;38569;52.722;6.440;2023-09-30T03:55:02;16.98;;;6.57;;
52674;SDS011;38569;52.722;6.440;2023-09-30T03:57:34;17.85;;;7.68;;
52674;SDS011;38569;52.722;6.440;2023-09-30T04:00:00;15.25;;;7.35;;
52674;SDS011;38569;52.722;6.440;2023-09-30T04:02:26;22.75;;;7.53;;
52674;SDS011;38569;52.722;6.440;2023-09-30T04:04:52;19.65;;;6.72;;
52674;SDS011;38569;52.722;6.440;2023-09-30T04:07:20;16.60;;;7.78;;
52674;SDS011;38569;52.722;6.440;2023-09-30T04:09:47;18.02;;;7.38;;
52674;SDS011;38569;52.722;6.440;2023-09-30T04:12:13;21.92;;;7.30;;
52674;SDS011;38569;52.722;6.440;2023-09-30T04:14:39;21.13;;;8.05;;
52674;SDS011;38569;52.722;6.440;2023-09-30T04:17:04;18.88;;;7.63;;
52674;SDS011;38569;52.722;6.440;2023-09-30T04:19:30;19.48;;;8.38;;
52674;SDS011;38569;52.722;6.440;2023-09-30T04:21:56;16.98;;;6.57;;
52674;SDS011;38569;52.722;6.440;2023-09-30T04:24:22;21.52;;;8.18;;
52674;SDS011;38569;52.722;6.440;2023-09-30T04:26:48;19.98;;;7.93;;
52674;SDS011;38569;52.722;6.440;2023-09-30T04:29:16;19.27;;;7.72;;
52674;SDS011;38569;52.722;6.440;2023-09-30T04:31:41;21.42;;;8.07;;
52674;SDS011;38569;52.722;6.440;2023-09-30T04:34:07;20.73;;;8.35;;
52674;SDS011;38569;52.722;6.440;2023-09-30T04:36:33;24.65;;;8.48;;
52674;SDS011;38569;52.722;6.440;2023-09-30T04:39:00;23.00;;;7.82;;
52674;SDS011;38569;52.722;6.440;2023-09-30T04:41:26;17.55;;;8.27;;
52674;SDS011;38569;52.722;6.440;2023-09-30T04:43:51;17.45;;;8.15;;
52674;SDS011;38569;52.722;6.440;2023-09-30T04:46:18;24.75;;;9.38;;
52674;SDS011;38569;52.722;6.440;2023-09-30T04:48:45;20.48;;;9.30;;
52674;SDS011;38569;52.722;6.440;2023-09-30T04:51:13;19.00;;;8.13;;
52674;SDS011;38569;52.722;6.440;2023-09-30T04:53:43;24.95;;;8.75;;
52674;SDS011;38569;52.722;6.440;2023-09-30T04:56:10;22.20;;;9.55;;
52674;SDS011;38569;52.722;6.440;2023-09-30T04:58:36;17.10;;;8.60;;
52674;SDS011;38569;52.722;6.440;2023-09-30T05:01:01;24.17;;;8.65;;
52674;SDS011;38569;52.722;6.440;2023-09-30T05:03:27;22.63;;;9.30;;
52674;SDS011;38569;52.722;6.440;2023-09-30T05:05:53;18.67;;;9.30;;
52674;SDS011;38569;52.722;6.440;2023-09-30T05:08:21;21.75;;;9.00;;
52674;SDS011;38569;52.722;6.440;2023-09-30T05:10:47;25.48;;;10.45;;
52674;SDS011;38569;52.722;6.440;2023-09-30T05:13:13;19.88;;;9.57;;
52674;SDS011;38569;52.722;6.440;2023-09-30T05:15:39;22.88;;;10.02;;
52674;SDS011;38569;52.722;6.440;2023-09-30T05:18:06;24.83;;;9.85;;
52674;SDS011;38569;52.722;6.440;2023-09-30T05:20:33;16.75;;;9.38;;
52674;SDS011;38569;52.722;6.440;2023-09-30T05:23:01;22.70;;;8.85;;
52674;SDS011;38569;52.722;6.440;2023-09-30T05:25:28;16.65;;;8.73;;
52674;SDS011;38569;52.722;6.440;2023-09-30T05:27:53;25.50;;;9.35;;
52674;SDS011;38569;52.722;6.440;2023-09-30T05:30:19;20.92;;;9.50;;
52674;SDS011;38569;52.722;6.440;2023-09-30T05:32:45;28.25;;;10.48;;
52674;SDS011;38569;52.722;6.440;2023-09-30T05:35:12;27.90;;;10.52;;
52674;SDS011;38569;52.722;6.440;2023-09-30T05:37:39;24.48;;;10.20;;
52674;SDS011;38569;52.722;6.440;2023-09-30T05:40:05;23.63;;;11.18;;
52674;SDS011;38569;52.722;6.440;2023-09-30T05:42:41;21.42;;;10.52;;
52674;SDS011;38569;52.722;6.440;2023-09-30T05:45:10;23.83;;;11.18;;
52674;SDS011;38569;52.722;6.440;2023-09-30T05:47:38;35.25;;;11.98;;
52674;SDS011;38569;52.722;6.440;2023-09-30T05:50:04;29.70;;;10.27;;
52674;SDS011;38569;52.722;6.440;2023-09-30T05:52:32;24.75;;;10.60;;
52674;SDS011;38569;52.722;6.440;2023-09-30T05:54:58;22.08;;;10.40;;
52674;SDS011;38569;52.722;6.440;2023-09-30T05:57:26;28.95;;;11.75;;
52674;SDS011;38569;52.722;6.440;2023-09-30T05:59:52;25.42;;;11.40;;
52674;SDS011;38569;52.722;6.440;2023-09-30T06:02:18;39.90;;;13.93;;
52674;SDS011;38569;52.722;6.440;2023-09-30T06:04:44;24.10;;;11.82;;
52674;SDS011;38569;52.722;6.440;2023-09-30T06:07:11;26.92;;;11.10;;
52674;SDS011;38569;52.722;6.440;2023-09-30T06:09:37;25.23;;;11.07;;
52674;SDS011;38569;52.722;6.440;2023-09-30T06:12:03;23.48;;;11.18;;
52674;SDS011;38569;52.722;6.440;2023-09-30T06:14:31;23.00;;;11.93;;
52674;SDS011;38569;52.722;6.440;2023-09-30T06:16:57;23.55;;;12.43;;
52674;SDS011;38569;52.722;6.440;2023-09-30T06:19:24;22.42;;;11.88;;
52674;SDS011;38569;52.722;6.440;2023-09-30T06:21:51;24.17;;;12.48;;
52674;SDS011;38569;52.722;6.440;2023-09-30T06:24:17;19.88;;;10.13;;
52674;SDS011;38569;52.722;6.440;2023-09-30T06:26:45;20.83;;;11.82;;
52674;SDS011;38569;52.722;6.440;2023-09-30T06:29:13;18.15;;;10.02;;
52674;SDS011;38569;52.722;6.440;2023-09-30T06:31:39;25.38;;;12.43;;
52674;SDS011;38569;52.722;6.440;2023-09-30T06:34:05;20.05;;;10.68;;
52674;SDS011;38569;52.722;6.440;2023-09-30T06:36:32;22.50;;;10.73;;
52674;SDS011;38569;52.722;6.440;2023-09-30T06:38:57;21.80;;;11.65;;
52674;SDS011;38569;52.722;6.440;2023-09-30T06:41:24;32.50;;;11.18;;
52674;SDS011;38569;52.722;6.440;2023-09-30T06:43:50;20.42;;;10.15;;
52674;SDS011;38569;52.722;6.440;2023-09-30T06:46:17;24.67;;;11.20;;
52674;SDS011;38569;52.722;6.440;2023-09-30T06:48:43;25.05;;;10.85;;
52674;SDS011;38569;52.722;6.440;2023-09-30T06:51:14;21.75;;;10.18;;
52674;SDS011;38569;52.722;6.440;2023-09-30T06:53:41;23.63;;;11.93;;
52674;SDS011;38569;52.722;6.440;2023-09-30T06:56:06;20.52;;;10.10;;
52674;SDS011;38569;52.722;6.440;2023-09-30T06:58:33;28.83;;;10.48;;
52674;SDS011;38569;52.722;6.440;2023-09-30T07:00:59;21.38;;;11.15;;
52674;SDS011;38569;52.722;6.440;2023-09-30T07:03:24;23.77;;;11.75;;
52674;SDS011;38569;52.722;6.440;2023-09-30T07:05:50;25.80;;;11.60;;
52674;SDS011;38569;52.722;6.440;2023-09-30T07:08:17;26.65;;;10.80;;
52674;SDS011;38569;52.722;6.440;2023-09-30T07:10:43;26.52;;;11.88;;
52674;SDS011;38569;52.722;6.440;2023-09-30T07:13:11;20.58;;;11.13;;
52674;SDS011;38569;52.722;6.440;2023-09-30T07:15:37;21.02;;;10.50;;
52674;SDS011;38569;52.722;6.440;2023-09-30T07:18:03;22.95;;;12.00;;
52674;SDS011;38569;52.722;6.440;2023-09-30T07:20:29;22.00;;;11.90;;
52674;SDS011;38569;52.722;6.440;2023-09-30T07:22:58;21.33;;;11.32;;
52674;SDS011;38569;52.722;6.440;2023-09-30T07:25:26;21.77;;;11.25;;
52674;SDS011;38569;52.722;6.440;2023-09-30T07:27:52;21.77;;;11.48;;
52674;SDS011;38569;52.722;6.440;2023-09-30T07:30:17;22.17;;;11.00;;
52674;SDS011;38569;52.722;6.440;2023-09-30T07:32:44;18.75;;;11.38;;
52674;SDS011;38569;52.722;6.440;2023-09-30T07:35:10;19.83;;;11.65;;
52674;SDS011;38569;52.722;6.440;2023-09-30T07:37:37;17.48;;;11.07;;
52674;SDS011;38569;52.722;6.440;2023-09-30T07:40:03;23.33;;;12.80;;
52674;SDS011;38569;52.722;6.440;2023-09-30T07:42:30;20.55;;;12.35;;
52674;SDS011;38569;52.722;6.440;2023-09-30T07:44:56;20.85;;;11.00;;
52674;SDS011;38569;52.722;6.440;2023-09-30T07:47:21;24.42;;;12.32;;
52674;SDS011;38569;52.722;6.440;2023-09-30T07:49:48;22.45;;;11.90;;
52674;SDS011;38569;52.722;6.440;2023-09-30T07:52:13;22.73;;;11.40;;
52674;SDS011;38569;52.722;6.440;2023-09-30T07:54:40;19.75;;;11.35;;
52674;SDS011;38569;52.722;6.440;2023-09-30T07:57:05;23.05;;;11.65;;
52674;SDS011;38569;52.722;6.440;2023-09-30T07:59:31;26.20;;;11.35;;
52674;SDS011;38569;52.722;6.440;2023-09-30T08:01:58;19.40;;;12.88;;
52674;SDS011;38569;52.722;6.440;2023-09-30T08:04:24;18.40;;;10.95;;
52674;SDS011;38569;52.722;6.440;2023-09-30T08:06:50;19.75;;;11.18;;
52674;SDS011;38569;52.722;6.440;2023-09-30T08:09:19;20.67;;;12.63;;
52674;SDS011;38569;52.722;6.440;2023-09-30T08:11:44;20.42;;;11.63;;
52674;SDS011;38569;52.722;6.440;2023-09-30T08:14:10;21.35;;;12.35;;
52674;SDS011;38569;52.722;6.440;2023-09-30T08:16:36;21.13;;;11.65;;
52674;SDS011;38569;52.722;6.440;2023-09-30T08:19:02;21.30;;;11.35;;
52674;SDS011;38569;52.722;6.440;2023-09-30T08:21:29;18.10;;;11.18;;
52674;SDS011;38569;52.722;6.440;2023-09-30T08:23:55;19.85;;;11.15;;
52674;SDS011;38569;52.722;6.440;2023-09-30T08:26:22;19.25;;;11.52;;
52674;SDS011;38569;52.722;6.440;2023-09-30T08:28:48;25.10;;;13.00;;
52674;SDS011;38569;52.722;6.440;2023-09-30T08:31:15;16.45;;;9.95;;
52674;SDS011;38569;52.722;6.440;2023-09-30T08:33:40;19.70;;;10.70;;
52674;SDS011;38569;52.722;6.440;2023-09-30T08:36:08;20.30;;;11.10;;
52674;SDS011;38569;52.722;6.440;2023-09-30T08:38:38;20.90;;;10.98;;
52674;SDS011;38569;52.722;6.440;2023-09-30T08:41:05;20.48;;;11.73;;
52674;SDS011;38569;52.722;6.440;2023-09-30T08:43:36;17.27;;;10.90;;
52674;SDS011;38569;52.722;6.440;2023-09-30T08:46:04;18.92;;;10.15;;
52674;SDS011;38569;52.722;6.440;2023-09-30T08:48:31;19.13;;;10.95;;
52674;SDS011;38569;52.722;6.440;2023-09-30T08:50:58;17.35;;;10.75;;
52674;SDS011;38569;52.722;6.440;2023-09-30T08:53:25;24.00;;;12.57;;
52674;SDS011;38569;52.722;6.440;2023-09-30T08:55:55;20.10;;;10.32;;
52674;SDS011;38569;52.722;6.440;2023-09-30T08:58:28;15.35;;;10.80;;
52674;SDS011;38569;52.722;6.440;2023-09-30T09:00:54;22.77;;;10.38;;
52674;SDS011;38569;52.722;6.440;2023-09-30T09:03:21;18.98;;;11.38;;
52674;SDS011;38569;52.722;6.440;2023-09-30T09:05:54;19.60;;;10.95;;
52674;SDS011;38569;52.722;6.440;2023-09-30T09:08:24;20.55;;;10.73;;
52674;SDS011;38569;52.722;6.440;2023-09-30T09:10:55;20.33;;;10.88;;
52674;SDS011;38569;52.722;6.440;2023-09-30T09:13:22;15.80;;;10.68;;
52674;SDS011;38569;52.722;6.440;2023-09-30T09:15:50;23.30;;;11.15;;
52674;SDS011;38569;52.722;6.440;2023-09-30T09:18:31;21.42;;;11.65;;
52674;SDS011;38569;52.722;6.440;2023-09-30T09:21:08;17.40;;;11.20;;
52674;SDS011;38569;52.722;6.440;2023-09-30T09:23:38;15.15;;;10.75;;
52674;SDS011;38569;52.722;6.440;2023-09-30T09:26:04;19.98;;;10.40;;
52674;SDS011;38569;52.722;6.440;2023-09-30T09:28:34;22.13;;;10.23;;
52674;SDS011;38569;52.722;6.440;2023-09-30T09:31:02;17.67;;;9.98;;
52674;SDS011;38569;52.722;6.440;2023-09-30T09:33:37;16.63;;;9.82;;
52674;SDS011;38569;52.722;6.440;2023-09-30T09:36:03;15.05;;;9.07;;
52674;SDS011;38569;52.722;6.440;2023-09-30T09:38:43;18.08;;;9.85;;
52674;SDS011;38569;52.722;6.440;2023-09-30T09:41:14;17.27;;;9.88;;
52674;SDS011;38569;52.722;6.440;2023-09-30T09:43:43;15.05;;;9.23;;
52674;SDS011;38569;52.722;6.440;2023-09-30T09:46:09;13.60;;;9.30;;
52674;SDS011;38569;52.722;6.440;2023-09-30T09:48:36;17.90;;;9.82;;
52674;SDS011;38569;52.722;6.440;2023-09-30T09:51:03;16.27;;;8.85;;
52674;SDS011;38569;52.722;6.440;2023-09-30T09:53:33;19.65;;;8.02;;
52674;SDS011;38569;52.722;6.440;2023-09-30T09:56:01;15.55;;;10.05;;
52674;SDS011;38569;52.722;6.440;2023-09-30T09:58:28;14.18;;;8.90;;
52674;SDS011;38569;52.722;6.440;2023-09-30T10:00:59;19.35;;;8.32;;
52674;SDS011;38569;52.722;6.440;2023-09-30T10:03:26;21.13;;;8.57;;
52674;SDS011;38569;52.722;6.440;2023-09-30T10:05:52;14.70;;;7.50;;
52674;SDS011;38569;52.722;6.440;2023-09-30T10:08:18;16.15;;;7.03;;
52674;SDS011;38569;52.722;6.440;2023-09-30T10:10:47;12.15;;;5.95;;
52674;SDS011;38569;52.722;6.440;2023-09-30T10:21:34;11.75;;;5.68;;
52674;SDS011;38569;52.722;6.440;2023-09-30T10:24:45;15.43;;;5.57;;
52674;SDS011;38569;52.722;6.440;2023-09-30T10:29:58;16.20;;;4.80;;
52674;SDS011;38569;52.722;6.440;2023-09-30T10:38:36;8.88;;;3.80;;
52674;SDS011;38569;52.722;6.440;2023-09-30T10:40:48;11.07;;;4.18;;
52674;SDS011;38569;52.722;6.440;2023-09-30T10:43:34;14.75;;;4.28;;
52674;SDS011;38569;52.722;6.440;2023-09-30T10:48:52;13.68;;;4.47;;
52674;SDS011;38569;52.722;6.440;2023-09-30T10:51:19;9.68;;;3.17;;
52674;SDS011;38569;52.722;6.440;2023-09-30T10:53:52;12.82;;;3.00;;
52674;SDS011;38569;52.722;6.440;2023-09-30T10:56:26;12.77;;;3.85;;
52674;SDS011;38569;52.722;6.440;2023-09-30T10:58:59;10.80;;;3.40;;
52674;SDS011;38569;52.722;6.440;2023-09-30T11:01:31;6.88;;;2.47;;
52674;SDS011;38569;52.722;6.440;2023-09-30T11:04:03;9.25;;;3.45;;
52674;SDS011;38569;52.722;6.440;2023-09-30T11:06:30;9.85;;;2.63;;
52674;SDS011;38569;52.722;6.440;2023-09-30T11:08:57;8.18;;;2.80;;
52674;SDS011;38569;52.722;6.440;2023-09-30T11:11:44;6.55;;;2.83;;
52674;SDS011;38569;52.722;6.440;2023-09-30T11:16:49;7.85;;;2.60;;
52674;SDS011;38569;52.722;6.440;2023-09-30T11:19:16;7.35;;;2.30;;
52674;SDS011;38569;52.722;6.440;2023-09-30T11:21:42;11.38;;;3.80;;
52674;SDS011;38569;52.722;6.440;2023-09-30T11:24:11;8.15;;;2.75;;
52674;SDS011;38569;52.722;6.440;2023-09-30T11:26:38;9.02;;;2.75;;
52674;SDS011;38569;52.722;6.440;2023-09-30T11:29:07;9.90;;;3.17;;
52674;SDS011;38569;52.722;6.440;2023-09-30T11:31:41;9.48;;;2.42;;
52674;SDS011;38569;52.722;6.440;2023-09-30T11:34:12;9.75;;;2.65;;
52674;SDS011;38569;52.722;6.440;2023-09-30T11:36:47;9.80;;;2.35;;
52674;SDS011;38569;52.722;6.440;2023-09-30T11:39:24;5.93;;;2.22;;
52674;SDS011;38569;52.722;6.440;2023-09-30T11:41:52;9.05;;;1.95;;
52674;SDS011;38569;52.722;6.440;2023-09-30T11:44:20;15.70;;;2.28;;
52674;SDS011;38569;52.722;6.440;2023-09-30T11:47:07;7.32;;;2.47;;
52674;SDS011;38569;52.722;6.440;2023-09-30T11:52:00;10.30;;;2.50;;
52674;SDS011;38569;52.722;6.440;2023-09-30T11:54:36;6.20;;;2.22;;
52674;SDS011;38569;52.722;6.440;2023-09-30T11:57:06;9.48;;;3.05;;
52674;SDS011;38569;52.722;6.440;2023-09-30T11:59:34;9.43;;;2.25;;
52674;SDS011;38569;52.722;6.440;2023-09-30T12:02:01;7.32;;;2.03;;
52674;SDS011;38569;52.722;6.440;2023-09-30T12:04:28;7.85;;;2.88;;
52674;SDS011;38569;52.722;6.440;2023-09-30T12:06:54;8.02;;;1.98;;
52674;SDS011;38569;52.722;6.440;2023-09-30T12:09:20;7.97;;;2.13;;
52674;SDS011;38569;52.722;6.440;2023-09-30T12:11:52;7.57;;;1.98;;
52674;SDS011;38569;52.722;6.440;2023-09-30T12:14:18;7.03;;;1.85;;
52674;SDS011;38569;52.722;6.440;2023-09-30T12:16:45;6.28;;;2.15;;
52674;SDS011;38569;52.722;6.440;2023-09-30T12:19:16;11.40;;;2.53;;
52674;SDS011;38569;52.722;6.440;2023-09-30T12:21:43;6.47;;;2.42;;
52674;SDS011;38569;52.722;6.440;2023-09-30T12:24:12;8.45;;;2.55;;
52674;SDS011;38569;52.722;6.440;2023-09-30T12:26:42;6.70;;;2.05;;
52674;SDS011;38569;52.722;6.440;2023-09-30T12:29:18;5.80;;;2.20;;
52674;SDS011;38569;52.722;6.440;2023-09-30T12:31:44;6.97;;;2.15;;
52674;SDS011;38569;52.722;6.440;2023-09-30T12:34:11;6.60;;;2.20;;
52674;SDS011;38569;52.722;6.440;2023-09-30T12:36:40;9.07;;;2.70;;
52674;SDS011;38569;52.722;6.440;2023-09-30T12:39:06;7.20;;;2.20;;
52674;SDS011;38569;52.722;6.440;2023-09-30T12:41:39;10.68;;;2.90;;
52674;SDS011;38569;52.722;6.440;2023-09-30T12:44:09;8.88;;;2.33;;
52674;SDS011;38569;52.722;6.440;2023-09-30T12:46:36;8.23;;;2.75;;
52674;SDS011;38569;52.722;6.440;2023-09-30T12:49:04;7.60;;;2.25;;
52674;SDS011;38569;52.722;6.440;2023-09-30T12:51:34;11.48;;;3.45;;
52674;SDS011;38569;52.722;6.440;2023-09-30T12:54:01;9.55;;;3.03;;
52674;SDS011;38569;52.722;6.440;2023-09-30T12:56:28;7.47;;;2.83;;
52674;SDS011;38569;52.722;6.440;2023-09-30T12:58:57;5.95;;;2.80;;
52674;SDS011;38569;52.722;6.440;2023-09-30T13:01:23;9.60;;;2.70;;
52674;SDS011;38569;52.722;6.440;2023-09-30T13:03:49;12.60;;;3.25;;
52674;SDS011;38569;52.722;6.440;2023-09-30T13:06:15;8.45;;;2.08;;
52674;SDS011;38569;52.722;6.440;2023-09-30T13:08:41;8.43;;;2.63;;
52674;SDS011;38569;52.722;6.440;2023-09-30T13:11:07;5.43;;;1.63;;
52674;SDS011;38569;52.722;6.440;2023-09-30T13:13:33;9.52;;;2.83;;
52674;SDS011;38569;52.722;6.440;2023-09-30T13:16:00;7.35;;;2.90;;
52674;SDS011;38569;52.722;6.440;2023-09-30T13:18:27;5.85;;;1.98;;
52674;SDS011;38569;52.722;6.440;2023-09-30T13:20:52;6.13;;;2.22;;
52674;SDS011;38569;52.722;6.440;2023-09-30T13:23:18;7.97;;;2.35;;
52674;SDS011;38569;52.722;6.440;2023-09-30T13:25:44;7.72;;;2.42;;
52674;SDS011;38569;52.722;6.440;2023-09-30T13:28:10;7.45;;;2.67;;
52674;SDS011;38569;52.722;6.440;2023-09-30T13:30:37;11.57;;;3.08;;
52674;SDS011;38569;52.722;6.440;2023-09-30T13:33:02;7.97;;;2.50;;
52674;SDS011;38569;52.722;6.440;2023-09-30T13:35:28;8.48;;;2.65;;
52674;SDS011;38569;52.722;6.440;2023-09-30T13:37:54;8.68;;;2.63;;
52674;SDS011;38569;52.722;6.440;2023-09-30T13:40:20;6.05;;;2.10;;
52674;SDS011;38569;52.722;6.440;2023-09-30T13:42:45;8.50;;;2.30;;
52674;SDS011;38569;52.722;6.440;2023-09-30T13:45:12;8.88;;;3.13;;
52674;SDS011;38569;52.722;6.440;2023-09-30T13:47:38;10.30;;;3.05;;
52674;SDS011;38569;52.722;6.440;2023-09-30T13:50:04;10.05;;;2.35;;
52674;SDS011;38569;52.722;6.440;2023-09-30T13:52:33;6.50;;;2.25;;
52674;SDS011;38569;52.722;6.440;2023-09-30T13:54:59;9.23;;;3.00;;
52674;SDS011;38569;52.722;6.440;2023-09-30T13:57:25;12.52;;;2.95;;
52674;SDS011;38569;52.722;6.440;2023-09-30T13:59:51;9.10;;;2.75;;
52674;SDS011;38569;52.722;6.440;2023-09-30T14:02:16;6.50;;;1.90;;
52674;SDS011;38569;52.722;6.440;2023-09-30T14:04:42;7.63;;;2.65;;
52674;SDS011;38569;52.722;6.440;2023-09-30T14:07:09;10.70;;;2.67;;
52674;SDS011;38569;52.722;6.440;2023-09-30T14:09:34;9.20;;;2.90;;
52674;SDS011;38569;52.722;6.440;2023-09-30T14:12:00;9.02;;;2.22;;
52674;SDS011;38569;52.722;6.440;2023-09-30T14:14:29;8.27;;;2.00;;
52674;SDS011;38569;52.722;6.440;2023-09-30T14:16:57;6.25;;;2.42;;
52674;SDS011;38569;52.722;6.440;2023-09-30T14:19:22;9.85;;;2.72;;
52674;SDS011;38569;52.722;6.440;2023-09-30T14:21:48;7.45;;;2.65;;
52674;SDS011;38569;52.722;6.440;2023-09-30T14:24:14;9.75;;;2.70;;
52674;SDS011;38569;52.722;6.440;2023-09-30T14:26:40;9.82;;;2.38;;
52674;SDS011;38569;52.722;6.440;2023-09-30T14:29:06;7.57;;;2.30;;
52674;SDS011;38569;52.722;6.440;2023-09-30T14:31:31;8.38;;;2.58;;
52674;SDS011;38569;52.722;6.440;2023-09-30T14:33:57;9.07;;;2.33;;
52674;SDS011;38569;52.722;6.440;2023-09-30T14:36:23;5.93;;;2.42;;
52674;SDS011;38569;52.722;6.440;2023-09-30T14:38:49;6.85;;;2.28;;
52674;SDS011;38569;52.722;6.440;2023-09-30T14:41:14;6.43;;;2.40;;
52674;SDS011;38569;52.722;6.440;2023-09-30T14:43:40;8.57;;;2.30;;
52674;SDS011;38569;52.722;6.440;2023-09-30T14:46:06;6.32;;;2.50;;
52674;SDS011;38569;52.722;6.440;2023-09-30T14:48:33;7.85;;;2.20;;
52674;SDS011;38569;52.722;6.440;2023-09-30T14:51:00;8.07;;;2.20;;
52674;SDS011;38569;52.722;6.440;2023-09-30T14:53:29;8.98;;;2.35;;
52674;SDS011;38569;52.722;6.440;2023-09-30T14:55:55;8.18;;;2.60;;
52674;SDS011;38569;52.722;6.440;2023-09-30T14:58:21;6.38;;;2.05;;
52674;SDS011;38569;52.722;6.440;2023-09-30T15:00:46;7.47;;;2.08;;
52674;SDS011;38569;52.722;6.440;2023-09-30T15:03:12;6.05;;;1.90;;